Time;durP1;ratioP1;P1;durP2;ratioP2;P2;SDS_P1;SDS_P2;PMS_P1;PMS_P2;Temp;Humidity;BMP_temperature;BMP_pressure;BME280_temperature;BME280_humidity;BME280_pressure;Samples;Min_cycle;Max_cycle;Signal;HPM_P1;HPM_P2
2021/09/10 00:01:12;;;;;;;;;;;;;;;;;;10212993;29;19934;-74
2021/09/10 00:06:15;;;;;;;;;;;;;;;;;;10213482;29;19927;-75
2021/09/10 00:11:17;;;;;;;;;;;;;;;;;;10228244;29;19927;-77
2021/09/10 00:16:20;;;;;;;;;;;;;;;;;;10213135;29;19930;-75
2021/09/10 00:21:22;;;;;;;;;;;;;;;;;;10213131;29;19942;-77
2021/09/10 00:26:24;;;;;;;;;;;;;;;;;;10213783;29;19946;-74
2021/09/10 00:31:27;;;;;;;;;;;;;;;;;;10213139;29;20401;-76
2021/09/10 00:36:33;;;;;;;;;;;;;;;;;;10219448;29;19927;-76
2021/09/10 00:41:36;;;;;;;;;;;;;;;;;;10221261;29;20389;-75
2021/09/10 00:46:39;;;;;;;;;;;;;;;;;;10220756;29;19955;-75
2021/09/10 00:51:42;;;;;;;;;;;;;;;;;;10221368;29;19926;-74
2021/09/10 00:56:44;;;;;;;;;;;;;;;;;;10220569;29;19926;-75
2021/09/10 01:01:47;;;;;;;;;;;;;;;;;;10220065;29;19934;-74
2021/09/10 01:06:52;;;;;;;;;;;;;;;;;;10234041;29;19927;-74
2021/09/10 01:11:54;;;;;;;;;;;;;;;;;;10261900;28;19926;-75
2021/09/10 01:16:57;;;;;;;;;;;;;;;;;;10258543;28;19926;-74
2021/09/10 01:21:59;;;;;;;;;;;;;;;;;;10259303;28;20398;-73
2021/09/10 01:27:03;;;;;;;;;;;;;;;;;;10260014;28;19960;-74
2021/09/10 01:32:06;;;;;;;;;;;;;;;;;;10258505;28;19930;-73
2021/09/10 01:37:09;;;;;;;;;;;;;;;;;;10258576;28;19933;-76
2021/09/10 01:42:11;;;;;;;;;;;;;;;;;;10258516;28;19999;-76
2021/09/10 01:47:15;;;;;;;;;;;;;;;;;;10257387;28;19933;-75
2021/09/10 01:52:17;;;;;;;;;;;;;;;;;;10258207;28;20295;-75
2021/09/10 01:57:20;;;;;;;;;;;;;;;;;;10240703;29;19930;-73
2021/09/10 02:02:22;;;;;;;;;;;;;;;;;;10257220;29;19930;-74
2021/09/10 02:07:25;;;;;;;;;;;;;;;;;;10272617;28;19926;-73
2021/09/10 02:12:27;;;;;;;;;;;;;;;;;;10257226;28;19926;-74
2021/09/10 02:17:31;;;;;;;;;;;;;;;;;;10257157;29;20306;-74
2021/09/10 02:22:33;;;;;;;;;;;;;;;;;;10256864;28;20387;-73
2021/09/10 02:27:35;;;;;;;;;;;;;;;;;;10256477;28;19981;-75
2021/09/10 02:32:38;;;;;;;;;;;;;;;;;;10256223;28;19933;-76
2021/09/10 02:37:40;;;;;;;;;;;;;;;;;;10256499;28;19931;-73
2021/09/10 02:42:43;;;;;;;;;;;;;;;;;;10255988;29;19934;-74
2021/09/10 02:47:45;;;;;;;;;;;;;;;;;;10256414;28;19926;-73
2021/09/10 02:52:48;;;;;;;;;;;;;;;;;;10255412;29;19930;-74
2021/09/10 02:57:52;;;;;;;;;;;;;;;;;;10253445;28;19933;-74
2021/09/10 03:02:56;;;;;;;;;;;;;;;;;;10255794;29;20396;-76
2021/09/10 03:08:00;;;;;;;;;;;;;;;;;;10256105;28;19931;-74
2021/09/10 03:13:02;;;;;;;;;;;;;;;;;;10254641;28;19926;-73
2021/09/10 03:18:05;;;;;;;;;;;;;;;;;;10253761;29;19927;-74
2021/09/10 03:23:10;;;;;;;;;;;;;;;;;;10255112;28;19937;-74
2021/09/10 03:28:14;;;;;;;;;;;;;;;;;;10254839;28;19934;-73
2021/09/10 03:33:16;;;;;;;;;;;;;;;;;;10254334;29;20382;-73
2021/09/10 03:38:20;;;;;;;;;;;;;;;;;;10253845;28;19933;-74
2021/09/10 03:43:22;;;;;;;;;;;;;;;;;;10254388;28;19930;-73
2021/09/10 03:48:25;;;;;;;;;;;;;;;;;;10255219;28;19942;-76
2021/09/10 03:53:28;;;;;;;;;;;;;;;;;;10253411;28;19926;-76
2021/09/10 03:58:30;;;;;;;;;;;;;;;;;;10249497;28;20436;-74
2021/09/10 04:03:40;;;;;;;;;;;;;;;;;;10253404;28;19927;-74
2021/09/10 04:08:45;;;;;;;;;;;;;;;;;;10253503;28;19981;-73
2021/09/10 04:13:48;;;;;;;;;;;;;;;;;;10252899;28;19973;-74
2021/09/10 04:18:50;;;;;;;;;;;;;;;;;;10253441;28;19930;-75
2021/09/10 04:23:53;;;;;;;;;;;;;;;;;;10251760;29;19926;-73
2021/09/10 04:28:55;;;;;;;;;;;;;;;;;;10254105;28;19933;-74
2021/09/10 04:33:58;;;;;;;;;;;;;;;;;;10252710;28;19958;-74
2021/09/10 04:39:00;;;;;;;;;;;;;;;;;;10252437;28;20366;-74
2021/09/10 04:44:02;;;;;;;;;;;;;;;;;;10253482;28;19927;-76
2021/09/10 04:49:05;;;;;;;;;;;;;;;;;;10253321;28;19926;-73
2021/09/10 04:54:08;;;;;;;;;;;;;;;;;;10252451;28;19926;-75
2021/09/10 04:59:10;;;;;;;;;;;;;;;;;;10252616;28;19942;-74
2021/09/10 05:04:13;;;;;;;;;;;;;;;;;;10251180;29;19930;-76
2021/09/10 05:09:16;;;;;;;;;;;;;;;;;;10252102;28;20279;-72
2021/09/10 05:14:19;;;;;;;;;;;;;;;;;;10252518;28;19926;-74
2021/09/10 05:19:22;;;;;;;;;;;;;;;;;;10252811;28;19926;-72
2021/09/10 05:24:24;;;;;;;;;;;;;;;;;;10258517;28;19932;-77
2021/09/10 05:29:27;;;;;;;;;;;;;;;;;;10255624;28;20306;-72
2021/09/10 05:34:29;;;;;;;;;;;;;;;;;;10237905;28;19926;-78
2021/09/10 05:39:32;;;;;;;;;;;;;;;;;;10262691;28;20941;-71
2021/09/10 05:49:10;;;;;;;;;;;;;;;;;;10576728;27;19961;-83
2021/09/10 05:54:12;;;;;;;;;;;;;;;;;;10577426;28;19924;-82
2021/09/10 05:59:15;;;;;;;;;;;;;;;;;;10574475;28;19924;-81
2021/09/10 06:04:19;;;;;;;;;;;;;;;;;;10574582;28;19931;-81
2021/09/10 06:13:09;;;;;;;;;;;;;;;;;;10575355;27;19912;-82
2021/09/10 06:20:39;;;;;;;;;;;;;;;;;;10576332;27;20298;-82
2021/09/10 06:27:43;;;;;;;;;;;;;;;;;;10577086;27;19912;-81
2021/09/10 06:32:45;;;;;;;;;;;;;;;;;;10557839;28;20278;-78
2021/09/10 06:37:48;;;;;;;;;;;;;;;;;;10557147;28;20302;-81
2021/09/10 06:42:52;;;;;;;;;;;;;;;;;;10574537;28;19977;-80
2021/09/10 06:47:54;;;;;;;;;;;;;;;;;;10574541;28;19927;-81
2021/09/10 06:52:56;;;;;;;;;;;;;;;;;;10556060;28;19924;-81
2021/09/10 06:57:59;;;;;;;;;;;;;;;;;;10556142;28;19928;-81
2021/09/10 07:03:01;;;;;;;;;;;;;;;;;;10556280;28;19928;-81
2021/09/10 07:08:05;;;;;;;;;;;;;;;;;;10573693;28;19930;-81
2021/09/10 07:13:07;;;;;;;;;;;;;;;;;;10573242;28;19935;-81
2021/09/10 07:18:11;;;;;;;;;;;;;;;;;;10572827;28;19931;-82
2021/09/10 07:23:14;;;;;;;;;;;;;;;;;;10572603;28;19924;-79
2021/09/10 07:28:16;;;;;;;;;;;;;;;;;;10573006;28;20379;-79
2021/09/10 07:33:18;;;;;;;;;;;;;;;;;;10572609;28;19931;-79
2021/09/10 07:38:21;;;;;;;;;;;;;;;;;;10530183;28;19924;-81
2021/09/10 07:43:24;;;;;;;;;;;;;;;;;;10544277;28;20363;-81
2021/09/10 07:48:26;;;;;;;;;;;;;;;;;;10525459;28;19924;-81
2021/09/10 07:53:28;;;;;;;;;;;;;;;;;;10544291;28;19924;-81
2021/09/10 07:58:33;;;;;;;;;;;;;;;;;;10548180;28;19931;-81
2021/09/10 08:03:36;;;;;;;;;;;;;;;;;;10524716;28;20403;-81
2021/09/10 08:08:39;;;;;;;;;;;;;;;;;;10542862;28;19935;-81
2021/09/10 08:13:41;;;;;;;;;;;;;;;;;;10538124;28;19925;-82
2021/09/10 08:18:44;;;;;;;;;;;;;;;;;;10538580;28;19928;-79
2021/09/10 08:23:55;;;;;;;;;;;;;;;;;;10522449;28;72371;-81
2021/09/10 08:33:14;;;;;;;;;;;;;;;;;;10568572;27;19916;-60
2021/09/10 08:38:17;;;;;;;;;;;;;;;;;;10571257;28;19931;-62
2021/09/10 08:43:19;;;;;;;;;;;;;;;;;;10571348;28;19932;-60
2021/09/10 08:48:24;;;;;;;;;;;;;;;;;;10570416;28;19924;-62
2021/09/10 08:53:26;;;;;;;;;;;;;;;;;;10570257;28;19932;-59
2021/09/10 08:58:29;;;;;;;;;;;;;;;;;;10570054;28;19951;-60
2021/09/10 09:03:32;;;;;;;;;;;;;;;;;;10570156;28;20412;-63
2021/09/10 09:08:36;;;;;;;;;;;;;;;;;;10570400;28;19935;-62
2021/09/10 09:13:58;;;;;;;;;;;;;;;;;;10569594;28;20271;-59
2021/09/10 09:19:18;;;;;;;;;;;;;;;;;;10569878;28;19948;-62
2021/09/10 09:24:37;;;;;;;;;;;;;;;;;;10569060;28;19912;-62
2021/09/10 09:29:58;;;;;;;;;;;;;;;;;;10569256;28;19924;-62
2021/09/10 09:35:18;;;;;;;;;;;;;;;;;;10566381;28;19916;-62
2021/09/10 09:40:38;;;;;;;;;;;;;;;;;;10561333;28;19936;-60
2021/09/10 09:45:58;;;;;;;;;;;;;;;;;;10540877;28;19912;-64
2021/09/10 09:51:19;;;;;;;;;;;;;;;;;;10540579;28;19920;-64
2021/09/10 09:56:22;;;;;;;;;;;;;;;;;;10540006;28;19931;-64
2021/09/10 10:01:27;;;;;;;;;;;;;;;;;;10540151;28;19924;-62
2021/09/10 10:06:30;;;;;;;;;;;;;;;;;;10539960;28;20154;-64
2021/09/10 10:14:06;;;;;;;;;;;;;;;;;;10363304;27;60362;-64
2021/09/10 10:19:09;;;;;;;;;;;;;;;;;;10445262;28;20035;-64
2021/09/10 10:24:11;;;;;;;;;;;;;;;;;;10415403;28;19929;-65
2021/09/10 10:29:13;;;;;;;;;;;;;;;;;;10404152;28;19929;-61
2021/09/10 10:34:16;;;;;;;;;;;;;;;;;;10349848;28;71397;-64
2021/09/10 10:39:20;;;;;;;;;;;;;;;;;;10411192;28;19929;-61
2021/09/10 10:44:22;;;;;;;;;;;;;;;;;;10402339;28;19956;-63
2021/09/10 10:49:47;;;;;;;;;;;;;;;;;;10509536;27;19966;-63
2021/09/10 10:54:50;;;;;;;;;;;;;;;;;;10561078;28;20023;-63
2021/09/10 10:59:52;;;;;;;;;;;;;;;;;;10528358;28;19928;-61
2021/09/10 11:04:55;;;;;;;;;;;;;;;;;;10525997;22;20300;-57
2021/09/10 11:09:58;;;;;;;;;;;;;;;;;;10442700;28;20384;-63
2021/09/10 11:15:00;;;;;;;;;;;;;;;;;;10441140;28;19929;-57
2021/09/10 11:20:03;;;;;;;;;;;;;;;;;;10444861;28;19925;-64
2021/09/10 11:25:05;;;;;;;;;;;;;;;;;;10447083;28;19929;-58
2021/09/10 11:30:07;;;;;;;;;;;;;;;;;;10448568;28;19925;-57
2021/09/10 11:35:10;;;;;;;;;;;;;;;;;;10447241;28;19925;-58
2021/09/10 11:40:13;;;;;;;;;;;;;;;;;;10446962;28;20261;-61
2021/09/10 11:45:16;;;;;;;;;;;;;;;;;;10447430;28;20372;-57
2021/09/10 11:50:21;;;;;;;;;;;;;;;;;;10447105;28;19925;-62
2021/09/10 11:55:24;;;;;;;;;;;;;;;;;;10445336;28;19929;-58
2021/09/10 12:00:27;;;;;;;;;;;;;;;;;;10423549;28;19931;-62
2021/09/10 12:05:30;;;;;;;;;;;;;;;;;;10419659;28;20389;-61
2021/09/10 12:10:32;;;;;;;;;;;;;;;;;;10419338;28;19925;-63
2021/09/10 12:15:36;;;;;;;;;;;;;;;;;;10419643;28;20331;-63
2021/09/10 12:20:39;;;;;;;;;;;;;;;;;;10420036;28;20364;-58
2021/09/10 12:25:45;;;;;;;;;;;;;;;;;;10419776;28;19933;-64
2021/09/10 12:30:47;;;;;;;;;;;;;;;;;;10419578;28;19978;-58
2021/09/10 12:35:50;;;;;;;;;;;;;;;;;;10392624;28;19965;-62
2021/09/10 12:40:55;;;;;;;;;;;;;;;;;;10372144;28;20027;-63
2021/09/10 12:45:58;;;;;;;;;;;;;;;;;;10373349;28;19929;-58
2021/09/10 12:51:01;;;;;;;;;;;;;;;;;;10369704;28;19984;-57
2021/09/10 12:56:04;;;;;;;;;;;;;;;;;;10373057;28;19936;-63
2021/09/10 13:01:12;;;;;;;;;;;;;;;;;;10372592;28;20439;-63
2021/09/10 13:06:15;;;;;;;;;;;;;;;;;;10372398;28;19977;-62
2021/09/10 13:11:18;;;;;;;;;;;;;;;;;;10372039;28;19925;-63
2021/09/10 13:16:21;;;;;;;;;;;;;;;;;;10371701;28;19995;-61
2021/09/10 13:21:24;;;;;;;;;;;;;;;;;;10371703;28;20475;-61
2021/09/10 13:26:27;;;;;;;;;;;;;;;;;;10371777;28;20484;-57
2021/09/10 13:31:35;;;;;;;;;;;;;;;;;;10371768;28;20374;-62
2021/09/10 13:36:37;;;;;;;;;;;;;;;;;;10370449;28;19936;-58
2021/09/10 13:41:40;;;;;;;;;;;;;;;;;;10372026;28;19935;-62
2021/09/10 13:46:43;;;;;;;;;;;;;;;;;;10368605;28;19941;-57
2021/09/10 13:51:46;;;;;;;;;;;;;;;;;;10365553;28;19929;-57
2021/09/10 13:56:49;;;;;;;;;;;;;;;;;;10368601;28;19948;-71
2021/09/10 14:01:52;;;;;;;;;;;;;;;;;;10366651;28;19980;-60
2021/09/10 14:06:55;;;;;;;;;;;;;;;;;;10368169;28;20016;-68
2021/09/10 14:11:58;;;;;;;;;;;;;;;;;;10366631;28;20087;-67
2021/09/10 14:17:03;;;;;;;;;;;;;;;;;;10374585;28;19933;-59
2021/09/10 14:22:08;;;;;;;;;;;;;;;;;;10372895;28;19932;-60
2021/09/10 14:27:14;;;;;;;;;;;;;;;;;;10373498;28;19932;-65
2021/09/10 14:32:17;;;;;;;;;;;;;;;;;;10387400;28;19925;-60
2021/09/10 14:37:20;;;;;;;;;;;;;;;;;;10373000;28;19941;-60
2021/09/10 14:42:22;;;;;;;;;;;;;;;;;;10372775;28;19926;-66
2021/09/10 14:47:24;;;;;;;;;;;;;;;;;;10372332;28;20331;-60
2021/09/10 14:52:27;;;;;;;;;;;;;;;;;;10372136;28;20401;-59
2021/09/10 14:57:29;;;;;;;;;;;;;;;;;;10371670;28;20289;-62
2021/09/10 15:02:32;;;;;;;;;;;;;;;;;;10370998;28;20359;-62
2021/09/10 15:07:36;;;;;;;;;;;;;;;;;;10397687;28;19984;-61
2021/09/10 15:12:39;;;;;;;;;;;;;;;;;;10395353;28;19975;-64
2021/09/10 15:17:41;;;;;;;;;;;;;;;;;;10412261;28;19975;-58
2021/09/10 15:22:59;;;;;;;;;;;;;;;;;;10412315;28;19955;-61
2021/09/10 15:28:03;;;;;;;;;;;;;;;;;;10410233;28;19932;-61
2021/09/10 15:33:05;;;;;;;;;;;;;;;;;;10414392;28;19936;-62
2021/09/10 15:38:08;;;;;;;;;;;;;;;;;;10419187;28;19979;-62
2021/09/10 15:43:11;;;;;;;;;;;;;;;;;;10420156;28;20380;-60
2021/09/10 15:48:13;;;;;;;;;;;;;;;;;;10419847;28;19925;-60
2021/09/10 15:53:16;;;;;;;;;;;;;;;;;;10420102;28;20288;-62
2021/09/10 15:58:18;;;;;;;;;;;;;;;;;;10420225;28;19926;-61
2021/09/10 16:03:20;;;;;;;;;;;;;;;;;;10419200;28;19925;-62
2021/09/10 16:08:23;;;;;;;;;;;;;;;;;;10419991;28;19925;-63
2021/09/10 16:13:25;;;;;;;;;;;;;;;;;;10406167;28;19934;-60
2021/09/10 16:18:28;;;;;;;;;;;;;;;;;;10405572;28;19929;-62
2021/09/10 16:23:30;;;;;;;;;;;;;;;;;;10419107;28;19925;-61
2021/09/10 16:28:33;;;;;;;;;;;;;;;;;;10418321;28;19932;-62
2021/09/10 16:33:35;;;;;;;;;;;;;;;;;;10418642;28;19987;-60
2021/09/10 16:38:38;;;;;;;;;;;;;;;;;;10418765;28;20009;-60
2021/09/10 16:43:40;;;;;;;;;;;;;;;;;;10418029;28;19936;-60
2021/09/10 16:48:43;;;;;;;;;;;;;;;;;;10417985;28;20376;-60
2021/09/10 16:53:45;;;;;;;;;;;;;;;;;;10417948;28;19929;-61
2021/09/10 16:58:48;;;;;;;;;;;;;;;;;;10419127;28;19975;-62
2021/09/10 17:03:50;;;;;;;;;;;;;;;;;;10418282;28;19995;-60
2021/09/10 17:08:53;;;;;;;;;;;;;;;;;;10417395;28;19925;-59
2021/09/10 17:13:55;;;;;;;;;;;;;;;;;;10416855;28;20388;-59
2021/09/10 17:18:58;;;;;;;;;;;;;;;;;;10417931;28;19975;-59
2021/09/10 17:24:00;;;;;;;;;;;;;;;;;;10416818;28;20323;-59
2021/09/10 17:29:02;;;;;;;;;;;;;;;;;;10415461;28;19925;-60
2021/09/10 17:34:05;;;;;;;;;;;;;;;;;;10414892;28;19936;-62
2021/09/10 17:39:07;;;;;;;;;;;;;;;;;;10237768;28;76884;-59
2021/09/10 17:44:13;;;;;;;;;;;;;;;;;;10357610;28;20804;-78
2021/09/10 17:49:16;;;;;;;;;;;;;;;;;;10345763;28;20401;-74
2021/09/10 17:54:19;;;;;;;;;;;;;;;;;;10345416;28;19980;-79
2021/09/10 17:59:23;;;;;;;;;;;;;;;;;;10364818;28;19925;-79
2021/09/10 18:04:28;;;;;;;;;;;;;;;;;;10374994;28;20385;-78
2021/09/10 18:09:31;;;;;;;;;;;;;;;;;;10371923;28;19929;-81
2021/09/10 18:14:34;;;;;;;;;;;;;;;;;;10370267;28;20029;-74
2021/09/10 18:19:50;;;;;;;;;;;;;;;;;;10368723;28;20021;-74
2021/09/10 18:24:55;;;;;;;;;;;;;;;;;;10363048;28;19973;-81
2021/09/10 18:29:58;;;;;;;;;;;;;;;;;;10343938;28;19940;-75
2021/09/10 18:35:00;;;;;;;;;;;;;;;;;;10326291;28;19994;-75
2021/09/10 18:40:02;;;;;;;;;;;;;;;;;;10341980;28;19937;-74
2021/09/10 18:45:07;;;;;;;;;;;;;;;;;;10324288;28;19929;-78
2021/09/10 18:50:10;;;;;;;;;;;;;;;;;;10332481;28;19933;-75
2021/09/10 18:55:12;;;;;;;;;;;;;;;;;;10332750;28;19925;-75
2021/09/10 19:00:15;;;;;;;;;;;;;;;;;;10332784;28;19936;-74
2021/09/10 19:05:20;;;;;;;;;;;;;;;;;;10331439;28;19933;-79
2021/09/10 19:10:24;;;;;;;;;;;;;;;;;;10337709;28;19973;-78
2021/09/10 19:15:30;;;;;;;;;;;;;;;;;;10341596;28;19934;-78
2021/09/10 19:20:38;;;;;;;;;;;;;;;;;;10375417;28;19973;-80
2021/09/10 19:25:43;;;;;;;;;;;;;;;;;;10375740;28;19926;-78
2021/09/10 19:30:48;;;;;;;;;;;;;;;;;;10376717;28;19929;-74
2021/09/10 19:35:51;;;;;;;;;;;;;;;;;;10376228;28;19937;-73
2021/09/10 19:40:55;;;;;;;;;;;;;;;;;;10376454;28;19950;-74
2021/09/10 19:46:00;;;;;;;;;;;;;;;;;;10376824;28;19926;-73
2021/09/10 19:51:04;;;;;;;;;;;;;;;;;;10376944;28;19971;-77
2021/09/10 19:56:10;;;;;;;;;;;;;;;;;;10374150;28;20419;-77
2021/09/10 20:01:13;;;;;;;;;;;;;;;;;;10373299;28;19997;-74
2021/09/10 20:06:19;;;;;;;;;;;;;;;;;;10372320;28;19976;-75
2021/09/10 20:11:22;;;;;;;;;;;;;;;;;;10372912;28;19929;-75
2021/09/10 20:16:28;;;;;;;;;;;;;;;;;;10368896;28;19979;-77
2021/09/10 20:21:31;;;;;;;;;;;;;;;;;;10371672;28;20017;-77
2021/09/10 20:26:34;;;;;;;;;;;;;;;;;;10370633;28;19932;-76
2021/09/10 20:31:37;;;;;;;;;;;;;;;;;;10371975;28;19934;-75
2021/09/10 20:36:43;;;;;;;;;;;;;;;;;;10371984;28;19960;-79
2021/09/10 20:41:46;;;;;;;;;;;;;;;;;;10370846;28;20130;-77
2021/09/10 20:46:55;;;;;;;;;;;;;;;;;;10369785;28;19929;-77
2021/09/10 20:52:00;;;;;;;;;;;;;;;;;;10369612;28;19926;-76
2021/09/10 20:57:03;;;;;;;;;;;;;;;;;;10371189;28;19925;-77
2021/09/10 21:02:07;;;;;;;;;;;;;;;;;;10370550;28;19940;-77
2021/09/10 21:07:21;;;;;;;;;;;;;;;;;;10370734;28;20366;-73
2021/09/10 21:12:27;;;;;;;;;;;;;;;;;;10366996;28;19933;-74
2021/09/10 21:17:34;;;;;;;;;;;;;;;;;;10348893;28;20460;-73
2021/09/10 21:22:38;;;;;;;;;;;;;;;;;;10330117;28;19926;-73
2021/09/10 21:27:43;;;;;;;;;;;;;;;;;;10330562;28;19930;-73
2021/09/10 21:32:46;;;;;;;;;;;;;;;;;;10328524;28;19930;-78
2021/09/10 21:37:50;;;;;;;;;;;;;;;;;;10329469;28;19930;-74
2021/09/10 21:42:53;;;;;;;;;;;;;;;;;;10328474;28;20444;-78
2021/09/10 21:47:56;;;;;;;;;;;;;;;;;;10328568;28;19926;-77
2021/09/10 21:52:59;;;;;;;;;;;;;;;;;;10329645;28;19979;-73
2021/09/10 21:58:03;;;;;;;;;;;;;;;;;;10329750;28;19937;-77
2021/09/10 22:03:07;;;;;;;;;;;;;;;;;;10328091;28;19996;-73
2021/09/10 22:08:10;;;;;;;;;;;;;;;;;;10327866;28;19937;-76
2021/09/10 22:13:14;;;;;;;;;;;;;;;;;;10325719;28;19929;-77
2021/09/10 22:18:18;;;;;;;;;;;;;;;;;;10327845;28;19929;-73
2021/09/10 22:23:21;;;;;;;;;;;;;;;;;;10327276;28;19984;-73
2021/09/10 22:28:23;;;;;;;;;;;;;;;;;;10326047;28;19930;-77
2021/09/10 22:33:26;;;;;;;;;;;;;;;;;;10326879;28;20344;-77
2021/09/10 22:38:29;;;;;;;;;;;;;;;;;;10326790;28;19937;-73
2021/09/10 22:43:32;;;;;;;;;;;;;;;;;;10325389;28;20308;-73
2021/09/10 22:48:35;;;;;;;;;;;;;;;;;;10325139;28;20337;-73
2021/09/10 22:53:42;;;;;;;;;;;;;;;;;;10326442;28;19933;-77
2021/09/10 22:58:45;;;;;;;;;;;;;;;;;;10326068;28;19937;-78
2021/09/10 23:03:48;;;;;;;;;;;;;;;;;;10340042;23;19930;-71
2021/09/10 23:08:50;;;;;;;;;;;;;;;;;;10326389;28;19930;-70
2021/09/10 23:13:53;;;;;;;;;;;;;;;;;;10322653;28;20394;-71
2021/09/10 23:18:55;;;;;;;;;;;;;;;;;;10326352;28;19929;-71
2021/09/10 23:23:57;;;;;;;;;;;;;;;;;;10325965;28;19941;-70
2021/09/10 23:29:00;;;;;;;;;;;;;;;;;;10325688;28;19941;-71
2021/09/10 23:34:02;;;;;;;;;;;;;;;;;;10332264;28;19926;-72
2021/09/10 23:39:04;;;;;;;;;;;;;;;;;;10328816;28;19984;-70
2021/09/10 23:44:07;;;;;;;;;;;;;;;;;;10327216;28;19929;-71
2021/09/10 23:49:09;;;;;;;;;;;;;;;;;;10328117;28;19930;-70
2021/09/10 23:54:12;;;;;;;;;;;;;;;;;;10330753;28;20348;-72
2021/09/10 23:59:14;;;;;;;;;;;;;;;;;;10338924;28;19926;-69
